Terminal Aerodrome Forecast
Issued by NWS

Home | Current Version | Previous Version | Text Only | Print | Product List | Glossary On
Versions: 1 2 3 4 5 6 7 8 9 10 11 12 13
000
FTUS45 KGJT 222340
TAFVEL
TAF
KVEL 222340Z 2300/2324 VRB03KT P6SM FEW150 SCT250
     FM232000 07008KT P6SM FEW080 SCT200
     FM232100 02008KT P6SM FEW130 SCT250
     FM232300 34007KT P6SM FEW130 SCT250=

USA.gov is the U.S. government's official web portal to all federal, state and local government web resources and services.